Time;durP1;ratioP1;P1;durP2;ratioP2;P2;SDS_P1;SDS_P2;PMS_P1;PMS_P2;Temp;Humidity;BMP_temperature;BMP_pressure;BME280_temperature;BME280_humidity;BME280_pressure;Samples;Min_cycle;Max_cycle;Signal;HPM_P1;HPM_P2
2021/08/26 00:00:24;;;;;;;3.90;2.10;;;16.00;99.90;;;;;;5035280;28;20955;-50
2021/08/26 00:05:46;;;;;;;3.77;2.47;;;16.10;99.90;;;;;;5039138;28;20474;-47
2021/08/26 00:08:15;;;;;;;3.80;2.23;;;16.00;99.90;;;;;;5039145;28;20523;-54
2021/08/26 00:10:42;;;;;;;3.73;2.37;;;16.00;99.90;;;;;;5038502;28;20443;-51
2021/08/26 00:13:11;;;;;;;4.10;2.73;;;15.90;99.90;;;;;;5038265;28;21002;-47
2021/08/26 00:15:40;;;;;;;7.90;2.90;;;15.90;99.90;;;;;;5038590;28;20460;-52
2021/08/26 00:18:06;;;;;;;4.40;2.73;;;15.90;99.90;;;;;;5038344;28;20995;-48
2021/08/26 00:20:33;;;;;;;5.47;3.03;;;15.90;99.90;;;;;;5038170;28;20867;-54
2021/08/26 00:23:00;;;;;;;3.37;2.60;;;15.90;99.90;;;;;;5038439;28;20514;-49
2021/08/26 00:25:28;;;;;;;4.93;3.30;;;16.00;99.90;;;;;;5038489;28;20469;-51
2021/08/26 00:27:55;;;;;;;2.83;2.47;;;16.10;99.90;;;;;;5038550;28;20452;-52
2021/08/26 00:30:22;;;;;;;4.87;2.87;;;16.10;99.90;;;;;;5038695;28;20845;-51
2021/08/26 00:32:49;;;;;;;6.83;2.50;;;16.00;99.90;;;;;;5038899;28;20476;-47
2021/08/26 00:35:15;;;;;;;5.37;3.50;;;16.00;99.90;;;;;;5038584;28;20455;-53
2021/08/26 00:37:42;;;;;;;15.37;3.20;;;16.00;99.90;;;;;;5038710;28;20448;-51
2021/08/26 00:40:09;;;;;;;7.37;3.27;;;15.90;99.90;;;;;;5038307;28;20913;-54
2021/08/26 00:42:38;;;;;;;5.37;2.80;;;16.00;99.90;;;;;;5038215;28;20456;-53
2021/08/26 00:45:05;;;;;;;6.60;3.17;;;16.10;99.90;;;;;;5038409;28;20456;-50
2021/08/26 00:47:32;;;;;;;3.50;3.10;;;16.00;99.90;;;;;;5038253;28;20444;-54
2021/08/26 00:49:59;;;;;;;7.00;3.10;;;16.00;99.90;;;;;;5038007;28;20904;-49
2021/08/26 00:52:26;;;;;;;5.87;3.13;;;16.00;99.90;;;;;;5038290;28;20476;-47
2021/08/26 00:54:53;;;;;;;6.97;3.00;;;16.00;99.90;;;;;;5038691;28;20445;-49
2021/08/26 00:57:21;;;;;;;3.17;2.87;;;16.00;99.90;;;;;;5038439;28;20793;-49
2021/08/26 00:59:49;;;;;;;5.60;3.20;;;16.00;99.90;;;;;;5038726;28;20984;-52
2021/08/26 01:02:23;;;;;;;7.10;3.07;;;16.00;99.90;;;;;;5038525;28;20443;-54
2021/08/26 01:04:52;;;;;;;4.43;3.17;;;16.00;99.90;;;;;;5037660;28;20447;-53
2021/08/26 01:07:25;;;;;;;4.90;3.00;;;16.00;99.90;;;;;;5037752;28;20509;-47
2021/08/26 01:09:55;;;;;;;8.43;3.77;;;16.00;99.90;;;;;;5038571;28;20456;-48
2021/08/26 01:12:24;;;;;;;6.00;3.30;;;16.00;99.90;;;;;;5038063;28;20471;-49
2021/08/26 01:14:53;;;;;;;5.50;3.30;;;16.00;99.90;;;;;;5037551;28;20544;-50
2021/08/26 01:17:20;;;;;;;7.47;3.77;;;16.10;99.90;;;;;;5037467;28;20468;-53
2021/08/26 01:19:48;;;;;;;5.70;3.47;;;16.10;99.90;;;;;;5037737;28;20456;-49
2021/08/26 01:22:15;;;;;;;7.00;2.80;;;16.20;99.90;;;;;;5036900;28;20480;-54
2021/08/26 01:24:44;;;;;;;6.83;2.93;;;16.20;99.90;;;;;;5037563;28;20456;-50
2021/08/26 01:27:12;;;;;;;5.40;3.30;;;16.10;99.90;;;;;;5037905;28;20440;-52
2021/08/26 01:29:40;;;;;;;5.37;3.33;;;16.00;99.90;;;;;;5037684;28;20457;-47
2021/08/26 01:32:08;;;;;;;9.83;3.50;;;16.10;99.90;;;;;;5037562;28;20471;-54
2021/08/26 01:34:35;;;;;;;11.83;3.77;;;16.00;99.90;;;;;;5037649;28;20460;-49
2021/08/26 01:37:02;;;;;;;14.27;4.80;;;15.90;99.90;;;;;;5037611;28;20513;-50
2021/08/26 01:39:28;;;;;;;3.67;2.90;;;16.00;99.90;;;;;;5036891;28;20444;-51
2021/08/26 01:41:56;;;;;;;8.77;3.17;;;16.00;99.90;;;;;;5037076;28;20460;-53
2021/08/26 01:44:25;;;;;;;7.27;3.30;;;15.90;99.90;;;;;;5037083;28;20842;-50
2021/08/26 01:46:53;;;;;;;4.10;3.30;;;15.90;99.90;;;;;;5036715;28;20448;-50
2021/08/26 01:49:20;;;;;;;12.83;3.60;;;16.00;99.90;;;;;;5036535;28;20803;-52
2021/08/26 01:51:46;;;;;;;10.27;3.60;;;16.00;99.90;;;;;;5036834;28;20835;-54
2021/08/26 01:54:13;;;;;;;4.80;3.10;;;15.90;99.90;;;;;;5036954;28;20798;-51
2021/08/26 01:56:40;;;;;;;6.90;2.90;;;15.90;99.90;;;;;;5037290;28;20479;-50
2021/08/26 01:59:07;;;;;;;10.80;4.27;;;16.00;99.90;;;;;;5037218;28;20449;-50
2021/08/26 02:01:35;;;;;;;5.93;3.30;;;16.00;99.90;;;;;;5036594;28;20511;-51
2021/08/26 02:04:01;;;;;;;7.33;3.50;;;15.90;99.90;;;;;;5036862;28;20448;-51
2021/08/26 02:06:28;;;;;;;6.40;2.70;;;16.00;99.90;;;;;;5036865;28;20444;-55
2021/08/26 02:08:54;;;;;;;10.10;3.50;;;16.00;99.90;;;;;;5036761;28;20463;-54
2021/08/26 02:11:21;;;;;;;6.23;3.40;;;16.00;99.90;;;;;;5036172;28;20917;-55
2021/08/26 02:13:49;;;;;;;14.03;3.67;;;16.00;99.90;;;;;;5036584;28;20479;-46
2021/08/26 02:16:17;;;;;;;10.03;3.43;;;15.90;99.90;;;;;;5036653;28;20551;-52
2021/08/26 02:18:45;;;;;;;6.70;3.77;;;15.90;99.90;;;;;;5036758;28;20472;-49
2021/08/26 02:21:12;;;;;;;8.63;3.33;;;15.90;99.90;;;;;;5036774;28;20514;-50
2021/08/26 02:23:39;;;;;;;13.70;5.00;;;15.80;99.90;;;;;;5036557;28;20440;-52
2021/08/26 02:26:06;;;;;;;8.77;4.50;;;15.80;99.90;;;;;;5036956;28;20464;-54
2021/08/26 02:28:33;;;;;;;6.10;3.80;;;15.80;99.90;;;;;;5036263;28;20444;-55
2021/08/26 02:31:00;;;;;;;7.13;3.97;;;15.80;99.90;;;;;;5036985;28;20456;-53
2021/08/26 02:33:26;;;;;;;8.10;3.20;;;15.90;99.90;;;;;;5037319;28;20492;-51
2021/08/26 02:35:54;;;;;;;11.97;3.57;;;15.80;99.90;;;;;;5037447;28;20506;-49
2021/08/26 02:38:21;;;;;;;6.27;3.50;;;15.70;99.90;;;;;;5036711;28;20459;-55
2021/08/26 02:40:48;;;;;;;10.33;3.80;;;15.70;99.90;;;;;;5035473;28;20444;-51
2021/08/26 02:43:15;;;;;;;9.73;3.77;;;15.70;99.90;;;;;;5035575;28;20459;-55
2021/08/26 02:45:41;;;;;;;13.30;4.00;;;15.70;99.90;;;;;;5035666;28;20945;-53
2021/08/26 02:48:08;;;;;;;8.67;3.77;;;15.70;99.90;;;;;;5035730;28;20627;-53
2021/08/26 02:50:35;;;;;;;11.50;3.80;;;15.60;99.90;;;;;;5035780;28;20775;-52
2021/08/26 02:53:03;;;;;;;10.60;4.50;;;15.60;99.90;;;;;;5036152;28;20911;-52
2021/08/26 02:55:29;;;;;;;8.13;4.10;;;15.60;99.90;;;;;;5035946;28;20995;-51
2021/08/26 02:57:56;;;;;;;7.57;4.27;;;15.60;99.90;;;;;;5035840;28;20530;-49
2021/08/26 03:00:23;;;;;;;15.93;4.50;;;15.70;99.90;;;;;;5035571;28;20444;-53
2021/08/26 03:02:49;;;;;;;11.30;4.37;;;15.80;99.90;;;;;;5036437;28;20505;-50
2021/08/26 03:05:16;;;;;;;17.77;4.57;;;15.80;99.90;;;;;;5036393;28;20840;-49
2021/08/26 03:07:43;;;;;;;9.70;4.40;;;15.80;99.90;;;;;;5035494;28;20463;-55
2021/08/26 03:10:11;;;;;;;7.07;4.10;;;15.80;99.90;;;;;;5034940;28;20448;-55
2021/08/26 03:12:38;;;;;;;10.20;5.17;;;15.80;99.90;;;;;;5035554;28;20447;-54
2021/08/26 03:15:06;;;;;;;8.00;3.93;;;15.80;99.90;;;;;;5035427;28;20444;-54
2021/08/26 03:17:33;;;;;;;10.77;4.60;;;15.80;99.90;;;;;;5035771;28;20452;-54
2021/08/26 03:20:00;;;;;;;11.73;4.30;;;15.80;99.90;;;;;;5035500;28;20448;-52
2021/08/26 03:22:26;;;;;;;13.97;4.63;;;15.80;99.90;;;;;;5035438;28;20530;-53
2021/08/26 03:24:53;;;;;;;8.93;4.00;;;15.80;99.90;;;;;;5035156;28;20836;-54
2021/08/26 03:27:21;;;;;;;8.77;4.07;;;15.80;99.90;;;;;;5034843;28;20851;-54
2021/08/26 03:29:47;;;;;;;15.20;5.03;;;15.80;99.90;;;;;;5034371;28;20468;-55
2021/08/26 03:32:14;;;;;;;14.43;3.67;;;15.70;99.90;;;;;;5035744;28;20464;-53
2021/08/26 03:34:41;;;;;;;10.43;4.30;;;15.70;99.90;;;;;;5035796;28;20480;-52
2021/08/26 03:37:07;;;;;;;14.50;5.07;;;15.70;99.90;;;;;;5035593;28;20449;-51
2021/08/26 03:39:34;;;;;;;16.80;4.70;;;15.70;99.90;;;;;;5038579;28;20455;-53
2021/08/26 03:42:01;;;;;;;13.67;4.97;;;15.70;99.90;;;;;;5039839;28;20505;-55
2021/08/26 03:44:29;;;;;;;18.17;7.10;;;15.60;99.90;;;;;;5039202;28;20909;-50
2021/08/26 03:46:56;;;;;;;14.20;4.93;;;15.50;99.90;;;;;;5039316;28;20471;-48
2021/08/26 03:49:22;;;;;;;15.27;5.50;;;15.50;99.90;;;;;;5039410;28;20502;-53
2021/08/26 03:51:49;;;;;;;20.77;6.43;;;15.50;99.90;;;;;;5039171;28;20828;-51
2021/08/26 03:54:16;;;;;;;8.97;4.30;;;15.60;99.90;;;;;;5039477;28;20948;-54
2021/08/26 03:56:42;;;;;;;9.90;4.20;;;15.60;99.90;;;;;;5038529;28;20510;-51
2021/08/26 03:59:09;;;;;;;14.17;4.77;;;15.60;99.90;;;;;;5038890;28;20440;-54
2021/08/26 04:01:39;;;;;;;15.37;5.77;;;15.50;99.90;;;;;;5038292;28;20444;-53
2021/08/26 04:04:06;;;;;;;9.30;6.40;;;15.50;99.90;;;;;;5038405;28;20634;-50
2021/08/26 04:06:32;;;;;;;14.10;4.43;;;15.60;99.90;;;;;;5038640;28;20975;-53
2021/08/26 04:08:59;;;;;;;19.40;5.40;;;15.60;99.90;;;;;;5038419;28;20793;-51
2021/08/26 04:11:26;;;;;;;13.13;4.80;;;15.60;99.90;;;;;;5038309;28;20514;-56
2021/08/26 04:13:52;;;;;;;18.43;5.83;;;15.50;99.90;;;;;;5037987;28;20476;-53
2021/08/26 04:16:19;;;;;;;9.87;5.17;;;15.50;99.90;;;;;;5037748;28;20448;-51
2021/08/26 04:18:47;;;;;;;9.27;6.23;;;15.60;99.90;;;;;;5038203;28;20475;-52
2021/08/26 04:21:13;;;;;;;16.33;5.67;;;15.60;99.90;;;;;;5037547;28;20479;-53
2021/08/26 04:23:40;;;;;;;21.77;6.83;;;15.50;99.90;;;;;;5037720;28;20514;-52
2021/08/26 04:26:07;;;;;;;15.40;5.37;;;15.50;99.90;;;;;;5037887;28;20827;-55
2021/08/26 04:28:34;;;;;;;14.83;6.47;;;15.40;99.90;;;;;;5037889;28;20459;-55
2021/08/26 04:31:00;;;;;;;11.00;5.93;;;15.40;99.90;;;;;;5037765;28;20444;-49
2021/08/26 04:33:27;;;;;;;17.57;5.87;;;15.50;99.90;;;;;;5037595;28;20971;-52
2021/08/26 04:35:55;;;;;;;12.80;5.43;;;15.50;99.90;;;;;;5037828;28;20526;-54
2021/08/26 04:38:22;;;;;;;15.93;5.10;;;15.50;99.90;;;;;;5037849;28;20444;-50
2021/08/26 04:40:48;;;;;;;15.30;5.57;;;15.60;99.90;;;;;;5037641;28;20448;-52
2021/08/26 04:43:15;;;;;;;11.00;5.53;;;15.50;99.90;;;;;;5037317;28;20529;-54
2021/08/26 04:45:42;;;;;;;15.73;5.53;;;15.50;99.90;;;;;;5037264;28;20847;-53
2021/08/26 04:48:08;;;;;;;14.87;5.87;;;15.50;99.90;;;;;;5037756;28;20505;-53
2021/08/26 04:50:35;;;;;;;19.57;5.80;;;15.50;99.90;;;;;;5036337;28;20933;-53
2021/08/26 04:53:03;;;;;;;15.43;5.30;;;15.50;99.90;;;;;;5037331;28;20479;-54
2021/08/26 04:55:30;;;;;;;10.10;5.60;;;15.60;99.90;;;;;;5037559;28;20784;-53
2021/08/26 04:57:56;;;;;;;8.33;5.40;;;15.50;99.90;;;;;;5037215;28;20840;-49
2021/08/26 05:00:23;;;;;;;14.13;5.70;;;15.60;99.90;;;;;;5037084;28;20502;-49
2021/08/26 05:02:50;;;;;;;17.57;5.97;;;15.70;99.90;;;;;;5037112;28;20460;-53
2021/08/26 05:05:17;;;;;;;11.07;5.83;;;15.70;99.90;;;;;;5037051;28;20448;-53
2021/08/26 05:07:43;;;;;;;13.30;6.53;;;15.60;99.90;;;;;;5037286;28;20925;-53
2021/08/26 05:10:12;;;;;;;9.13;6.23;;;15.60;99.90;;;;;;5036998;28;20460;-52
2021/08/26 05:12:38;;;;;;;10.33;5.30;;;15.60;99.90;;;;;;5037019;28;20463;-51
2021/08/26 05:15:07;;;;;;;12.77;5.43;;;15.70;99.90;;;;;;5036760;28;20475;-49
2021/08/26 05:17:33;;;;;;;14.40;8.47;;;15.80;99.90;;;;;;5036831;28;20448;-53
2021/08/26 05:20:00;;;;;;;13.03;5.50;;;15.90;99.90;;;;;;5037093;28;20526;-52
2021/08/26 05:22:27;;;;;;;15.10;4.50;;;15.90;99.90;;;;;;5036498;28;20953;-52
2021/08/26 05:24:53;;;;;;;16.07;6.77;;;15.90;99.90;;;;;;5036824;28;20440;-49
2021/08/26 05:27:21;;;;;;;14.60;7.00;;;15.90;99.90;;;;;;5040544;28;20838;-51
2021/08/26 05:29:48;;;;;;;11.93;5.80;;;16.00;99.90;;;;;;5037028;28;20514;-52
2021/08/26 05:32:14;;;;;;;13.47;6.00;;;16.00;99.90;;;;;;5056336;28;20443;-51
2021/08/26 05:34:45;;;;;;;19.10;6.43;;;16.00;99.90;;;;;;5056595;28;20541;-52
2021/08/26 05:37:12;;;;;;;16.23;6.00;;;16.00;99.90;;;;;;5055028;28;20498;-48
2021/08/26 05:39:39;;;;;;;12.80;5.57;;;15.90;99.90;;;;;;5053639;28;20900;-48
2021/08/26 05:42:06;;;;;;;14.43;6.00;;;15.90;99.90;;;;;;5044019;28;20462;-48
2021/08/26 05:44:35;;;;;;;13.23;4.90;;;15.90;99.90;;;;;;5056224;28;20851;-53
2021/08/26 05:47:02;;;;;;;30.97;11.13;;;15.90;99.90;;;;;;5058604;28;20482;-48
2021/08/26 05:49:29;;;;;;;11.67;5.83;;;15.90;99.90;;;;;;5052856;28;20435;-53
2021/08/26 05:51:56;;;;;;;56.60;33.87;;;15.90;99.90;;;;;;5058301;28;20439;-50
2021/08/26 05:54:23;;;;;;;15.10;6.90;;;15.90;99.90;;;;;;5050377;28;20482;-54
2021/08/26 05:56:51;;;;;;;16.90;9.47;;;15.90;99.90;;;;;;5056260;28;20458;-49
2021/08/26 05:59:17;;;;;;;13.87;7.33;;;15.90;99.90;;;;;;5058072;28;20475;-53
2021/08/26 06:01:45;;;;;;;14.90;5.70;;;15.90;99.90;;;;;;5055568;28;20451;-55
2021/08/26 06:04:12;;;;;;;23.60;7.80;;;15.90;99.90;;;;;;5051353;28;20443;-51
2021/08/26 06:06:39;;;;;;;23.37;7.40;;;15.90;99.90;;;;;;5055752;28;20439;-52
2021/08/26 06:09:05;;;;;;;15.50;6.40;;;15.90;99.90;;;;;;5055212;28;20524;-52
2021/08/26 06:11:32;;;;;;;11.73;5.50;;;16.00;99.90;;;;;;5055538;28;20887;-52
2021/08/26 06:13:59;;;;;;;18.77;6.83;;;16.00;99.90;;;;;;5054363;28;20475;-55
2021/08/26 06:16:25;;;;;;;16.33;5.50;;;16.10;99.90;;;;;;5052794;28;20986;-54
2021/08/26 06:18:53;;;;;;;15.33;5.13;;;16.10;99.90;;;;;;5048839;28;20505;-50
2021/08/26 06:21:20;;;;;;;15.40;6.37;;;16.20;99.90;;;;;;5037324;28;20472;-49
2021/08/26 06:23:47;;;;;;;10.43;4.47;;;16.20;99.90;;;;;;5046752;28;20435;-52
2021/08/26 06:26:13;;;;;;;12.13;5.23;;;16.30;99.90;;;;;;5059500;28;20513;-50
2021/08/26 06:28:40;;;;;;;15.60;6.20;;;16.20;99.90;;;;;;5041784;28;20468;-51
2021/08/26 06:31:06;;;;;;;8.67;5.30;;;16.30;99.90;;;;;;5035665;28;20478;-51
2021/08/26 06:33:33;;;;;;;12.30;6.40;;;16.30;99.90;;;;;;5034752;28;20464;-51
2021/08/26 06:36:01;;;;;;;16.00;6.93;;;16.40;99.90;;;;;;5052309;28;20442;-49
2021/08/26 06:38:28;;;;;;;15.60;6.57;;;16.40;99.90;;;;;;5055196;28;20442;-54
2021/08/26 06:40:55;;;;;;;15.23;6.07;;;16.40;99.90;;;;;;5055253;28;20750;-53
2021/08/26 06:43:21;;;;;;;12.80;5.77;;;16.40;99.90;;;;;;5045271;28;20486;-51
2021/08/26 06:45:48;;;;;;;17.40;5.80;;;16.50;99.90;;;;;;5038061;28;20440;-52
2021/08/26 06:48:15;;;;;;;12.13;4.83;;;16.60;99.90;;;;;;5034308;28;20448;-52
2021/08/26 06:50:41;;;;;;;15.47;4.80;;;16.80;99.90;;;;;;5045291;28;20932;-55
2021/08/26 06:53:09;;;;;;;14.90;4.87;;;16.80;99.90;;;;;;5045779;28;20440;-55
2021/08/26 06:55:36;;;;;;;22.73;5.70;;;16.80;99.90;;;;;;5056779;28;20486;-49
2021/08/26 06:58:03;;;;;;;12.77;4.70;;;16.80;99.90;;;;;;5055401;28;20486;-50
2021/08/26 07:00:30;;;;;;;13.27;4.60;;;16.80;99.90;;;;;;5054882;28;20448;-53
2021/08/26 07:02:57;;;;;;;12.47;4.60;;;16.80;99.90;;;;;;5044602;28;20471;-51
2021/08/26 07:05:23;;;;;;;8.67;4.60;;;16.80;99.90;;;;;;5034916;28;20518;-48
2021/08/26 07:07:50;;;;;;;12.07;6.27;;;16.90;99.90;;;;;;5034614;28;20448;-52
2021/08/26 07:10:18;;;;;;;9.07;4.57;;;17.10;99.90;;;;;;5033895;28;20456;-54
2021/08/26 07:12:45;;;;;;;14.50;4.70;;;17.20;99.90;;;;;;5032728;28;20448;-53
2021/08/26 07:15:12;;;;;;;13.60;5.23;;;17.20;99.90;;;;;;5032517;28;20475;-49
2021/08/26 07:17:39;;;;;;;8.67;4.00;;;17.30;99.90;;;;;;5037792;28;20474;-50
2021/08/26 07:20:07;;;;;;;7.57;3.90;;;17.40;99.90;;;;;;5043842;28;20825;-53
2021/08/26 07:22:34;;;;;;;9.03;3.83;;;17.40;99.90;;;;;;5038960;28;20432;-51
2021/08/26 07:25:00;;;;;;;10.53;4.30;;;17.30;99.90;;;;;;5040409;28;20464;-55
2021/08/26 07:27:29;;;;;;;8.77;3.57;;;17.50;99.90;;;;;;5044706;28;20466;-53
2021/08/26 07:29:55;;;;;;;8.07;5.10;;;17.40;99.90;;;;;;5044561;28;20897;-48
2021/08/26 07:32:23;;;;;;;5.33;4.30;;;17.50;99.90;;;;;;5043151;28;20835;-49
2021/08/26 07:34:49;;;;;;;7.30;3.80;;;17.60;99.90;;;;;;5043303;28;20491;-53
2021/08/26 07:37:16;;;;;;;17.07;4.83;;;17.80;99.90;;;;;;5042727;28;20534;-50
2021/08/26 07:39:44;;;;;;;13.60;4.13;;;17.80;99.90;;;;;;5043453;28;20931;-54
2021/08/26 07:42:11;;;;;;;10.13;4.67;;;17.90;99.90;;;;;;5046286;28;20447;-51
2021/08/26 07:44:39;;;;;;;8.90;3.47;;;17.90;99.90;;;;;;5043952;28;20439;-54
2021/08/26 07:47:06;;;;;;;10.13;4.70;;;18.00;99.90;;;;;;5041012;28;20450;-52
2021/08/26 07:49:33;;;;;;;9.70;3.30;;;18.10;99.90;;;;;;5043665;28;20535;-52
2021/08/26 07:52:00;;;;;;;6.30;3.80;;;18.20;99.90;;;;;;5044388;28;20460;-51
2021/08/26 07:54:27;;;;;;;9.07;3.77;;;18.20;99.90;;;;;;5047104;28;20554;-55
2021/08/26 07:56:53;;;;;;;13.03;4.47;;;18.20;99.90;;;;;;5044570;28;20439;-52
2021/08/26 07:59:20;;;;;;;8.47;3.30;;;18.30;99.90;;;;;;5046733;28;20934;-52
2021/08/26 08:01:48;;;;;;;7.77;3.23;;;18.60;99.90;;;;;;5042170;28;20444;-50
2021/08/26 08:04:15;;;;;;;8.07;3.17;;;19.00;99.90;;;;;;5044719;28;20448;-55
2021/08/26 08:06:41;;;;;;;8.03;3.07;;;19.60;99.90;;;;;;5043898;28;20424;-51
2021/08/26 08:09:08;;;;;;;10.50;3.63;;;20.40;99.90;;;;;;5041230;28;20825;-50
2021/08/26 08:11:35;;;;;;;7.17;3.30;;;21.10;99.90;;;;;;5043662;28;20506;-52
2021/08/26 08:14:02;;;;;;;9.30;2.73;;;22.20;99.90;;;;;;5039051;28;20470;-52
2021/08/26 08:16:29;;;;;;;5.50;2.40;;;23.10;99.90;;;;;;5040880;28;20483;-54
2021/08/26 08:18:57;;;;;;;6.17;2.40;;;22.70;99.90;;;;;;5042056;28;20444;-50
2021/08/26 08:21:24;;;;;;;4.20;2.13;;;22.00;99.90;;;;;;5044417;28;20471;-54
2021/08/26 08:23:50;;;;;;;7.97;2.77;;;21.40;99.90;;;;;;5041795;28;20440;-50
2021/08/26 08:26:17;;;;;;;5.77;2.77;;;20.70;99.90;;;;;;5044569;28;20515;-54
2021/08/26 08:28:44;;;;;;;5.30;2.10;;;20.30;99.90;;;;;;5036379;28;20513;-55
2021/08/26 08:31:11;;;;;;;6.57;2.57;;;19.90;99.90;;;;;;5036686;28;20444;-51
2021/08/26 08:33:38;;;;;;;7.97;3.13;;;19.60;99.90;;;;;;5038471;28;20475;-49
2021/08/26 08:36:07;;;;;;;8.57;2.00;;;19.80;99.90;;;;;;5035359;28;20460;-48
2021/08/26 08:38:35;;;;;;;4.33;2.60;;;21.10;99.90;;;;;;5036324;28;20885;-53
2021/08/26 08:41:02;;;;;;;8.93;2.27;;;22.80;99.90;;;;;;5036513;28;20450;-50
2021/08/26 08:43:29;;;;;;;4.40;2.60;;;24.40;99.90;;;;;;5035023;28;20444;-53
2021/08/26 08:45:56;;;;;;;4.37;2.20;;;25.60;99.90;;;;;;5038310;28;20447;-52
2021/08/26 08:48:24;;;;;;;4.37;2.10;;;26.90;97.70;;;;;;5036524;28;20444;-54
2021/08/26 08:50:52;;;;;;;4.30;2.43;;;27.50;91.40;;;;;;5047767;28;20475;-52
2021/08/26 08:53:20;;;;;;;13.30;3.17;;;27.00;87.60;;;;;;5052918;28;20431;-55
2021/08/26 08:55:48;;;;;;;8.20;2.40;;;26.00;89.00;;;;;;5046412;28;20484;-54
2021/08/26 08:58:15;;;;;;;6.77;2.30;;;24.60;92.40;;;;;;5052280;28;20931;-53
2021/08/26 09:00:42;;;;;;;8.70;2.40;;;23.40;97.20;;;;;;5044174;28;20448;-52
2021/08/26 09:03:09;;;;;;;3.70;2.50;;;22.00;99.90;;;;;;5051369;28;20528;-54
2021/08/26 09:05:54;;;;;;;13.30;2.57;;;21.10;99.90;;;;;;5047753;28;20443;-52
2021/08/26 09:08:26;;;;;;;3.03;1.67;;;20.20;99.90;;;;;;5046750;28;20464;-54
2021/08/26 09:10:54;;;;;;;2.90;1.70;;;19.40;99.90;;;;;;5045067;28;20493;-51
2021/08/26 09:13:31;;;;;;;1.70;1.20;;;18.80;99.90;;;;;;5047121;28;20424;-55
2021/08/26 09:15:58;;;;;;;1.70;1.20;;;18.40;99.90;;;;;;5049164;28;20499;-54
2021/08/26 09:18:28;;;;;;;3.97;1.50;;;17.90;99.90;;;;;;5048538;28;20447;-51
2021/08/26 09:20:56;;;;;;;2.93;1.43;;;17.70;99.90;;;;;;5052536;28;20475;-54
2021/08/26 09:23:26;;;;;;;2.27;1.40;;;17.60;99.90;;;;;;5048153;28;20523;-51
2021/08/26 09:26:13;;;;;;;2.50;1.60;;;17.60;99.90;;;;;;5048842;28;20451;-53
2021/08/26 09:28:40;;;;;;;1.53;1.17;;;18.00;99.90;;;;;;5050461;28;20435;-53
2021/08/26 09:31:15;;;;;;;1.60;1.50;;;19.00;99.90;;;;;;5050713;28;21051;-53
2021/08/26 09:33:50;;;;;;;2.73;1.40;;;20.20;99.90;;;;;;5044609;28;20436;-56
2021/08/26 09:36:19;;;;;;;2.27;1.90;;;21.20;99.90;;;;;;5046387;28;20487;-52
2021/08/26 09:38:52;;;;;;;2.17;1.43;;;21.50;99.90;;;;;;5046634;28;20460;-52
2021/08/26 09:41:34;;;;;;;1.90;1.50;;;21.60;99.90;;;;;;5046155;28;20468;-53
2021/08/26 09:44:05;;;;;;;1.73;1.60;;;21.80;99.90;;;;;;5041881;28;20878;-56
2021/08/26 09:46:32;;;;;;;3.33;2.07;;;22.00;99.90;;;;;;5039416;28;20502;-53
2021/08/26 09:49:04;;;;;;;4.00;2.10;;;22.40;99.90;;;;;;5035664;28;20448;-55
2021/08/26 09:51:31;;;;;;;3.70;1.60;;;22.50;99.90;;;;;;5037685;28;20439;-54
2021/08/26 09:53:59;;;;;;;3.00;1.80;;;22.60;99.90;;;;;;5037469;28;20506;-56
2021/08/26 09:56:38;;;;;;;3.10;1.70;;;23.00;99.90;;;;;;5034735;28;20920;-56
2021/08/26 09:59:06;;;;;;;4.80;2.00;;;23.70;99.90;;;;;;5035981;28;20432;-55
2021/08/26 10:01:36;;;;;;;8.03;2.53;;;24.80;99.90;;;;;;5035841;28;20796;-55
2021/08/26 10:04:03;;;;;;;3.80;1.40;;;25.20;99.90;;;;;;5035871;28;20441;-55
2021/08/26 10:06:31;;;;;;;2.63;1.73;;;25.10;99.90;;;;;;5035782;28;20452;-55
2021/08/26 10:08:59;;;;;;;3.83;2.33;;;25.10;99.90;;;;;;5034615;28;20923;-55
2021/08/26 10:11:27;;;;;;;1.47;1.20;;;26.00;99.90;;;;;;5034548;28;20468;-55
2021/08/26 10:13:54;;;;;;;1.53;1.23;;;27.00;98.50;;;;;;5034548;28;20535;-53
2021/08/26 10:16:21;;;;;;;7.03;1.30;;;27.00;93.70;;;;;;5037478;28;20949;-47
2021/08/26 10:18:49;;;;;;;5.73;3.33;;;26.30;92.40;;;;;;5034463;28;20452;-48
2021/08/26 10:21:17;;;;;;;5.93;1.30;;;25.80;91.70;;;;;;5034107;28;20533;-48
2021/08/26 10:23:45;;;;;;;1.93;1.20;;;25.70;91.40;;;;;;5034539;28;20950;-52
2021/08/26 10:26:17;;;;;;;4.10;2.10;;;25.30;91.60;;;;;;5035063;28;20444;-50
2021/08/26 10:28:45;;;;;;;1.70;1.20;;;24.50;93.00;;;;;;5035149;28;20762;-53
2021/08/26 10:31:25;;;;;;;1.90;1.30;;;23.70;92.40;;;;;;5035071;28;20447;-49
2021/08/26 10:34:07;;;;;;;3.80;2.50;;;23.30;94.20;;;;;;5035466;28;20522;-52
2021/08/26 10:36:44;;;;;;;4.57;2.30;;;23.00;95.20;;;;;;5034464;28;20534;-53
2021/08/26 10:39:26;;;;;;;1.57;1.10;;;22.60;96.50;;;;;;5034245;28;20487;-50
2021/08/26 10:41:54;;;;;;;3.80;1.00;;;22.70;96.20;;;;;;5031172;28;20460;-49
2021/08/26 10:44:21;;;;;;;3.53;1.43;;;23.10;95.80;;;;;;5045158;28;20617;-49
2021/08/26 10:46:50;;;;;;;1.93;1.23;;;23.30;95.40;;;;;;5055074;28;20447;-48
2021/08/26 10:49:17;;;;;;;2.50;1.17;;;23.10;95.50;;;;;;5052173;28;20512;-52
2021/08/26 10:51:46;;;;;;;4.30;1.37;;;22.60;96.90;;;;;;5054095;28;20446;-51
2021/08/26 10:54:30;;;;;;;2.67;1.30;;;22.00;99.20;;;;;;5054045;28;20454;-48
2021/08/26 10:57:28;;;;;;;1.60;1.20;;;21.70;99.90;;;;;;5053455;28;20544;-48
2021/08/26 10:59:54;;;;;;;5.33;2.57;;;21.30;99.90;;;;;;5053876;28;20459;-47
2021/08/26 11:02:40;;;;;;;1.43;1.13;;;21.10;99.90;;;;;;5049146;28;21009;-50
2021/08/26 11:05:32;;;;;;;1.90;0.90;;;20.80;99.90;;;;;;5033721;28;20448;-50
2021/08/26 11:07:59;;;;;;;2.63;1.13;;;20.60;99.90;;;;;;5033987;28;20454;-48
2021/08/26 11:10:28;;;;;;;3.23;1.20;;;20.70;99.90;;;;;;5034014;28;20452;-51
2021/08/26 11:13:32;;;;;;;2.90;1.00;;;20.70;99.90;;;;;;5033933;28;20474;-49
2021/08/26 11:16:36;;;;;;;2.40;1.10;;;20.60;99.90;;;;;;5035081;28;20952;-49
2021/08/26 11:19:27;;;;;;;2.57;1.00;;;20.40;99.90;;;;;;5033499;28;20912;-49
2021/08/26 11:22:00;;;;;;;4.93;1.73;;;20.50;99.90;;;;;;5033367;28;20479;-49
2021/08/26 11:24:58;;;;;;;2.53;1.00;;;20.70;99.90;;;;;;5033628;28;20483;-45
2021/08/26 11:27:32;;;;;;;1.50;0.87;;;20.80;99.90;;;;;;5029224;28;20464;-51
2021/08/26 11:30:14;;;;;;;3.90;1.43;;;21.20;99.90;;;;;;5035255;28;20518;-50
2021/08/26 11:32:43;;;;;;;3.33;0.93;;;21.40;99.90;;;;;;5053663;28;20435;-52
2021/08/26 11:35:10;;;;;;;1.80;1.10;;;21.60;99.90;;;;;;5053278;28;20451;-51
2021/08/26 11:37:37;;;;;;;4.10;1.00;;;21.40;99.90;;;;;;5053445;28;20935;-45
2021/08/26 11:40:07;;;;;;;1.30;0.73;;;21.20;99.90;;;;;;5053783;28;20965;-49
2021/08/26 11:42:35;;;;;;;1.47;0.70;;;20.80;99.90;;;;;;5053360;28;20772;-50
2021/08/26 11:45:24;;;;;;;1.70;0.90;;;20.50;99.90;;;;;;5053015;28;20525;-52
2021/08/26 11:47:54;;;;;;;2.50;0.90;;;20.30;99.90;;;;;;5053507;28;20791;-50
2021/08/26 11:50:24;;;;;;;4.10;1.20;;;20.30;99.90;;;;;;5052915;28;20803;-49
2021/08/26 11:52:53;;;;;;;1.93;0.90;;;20.30;99.90;;;;;;5053055;28;20455;-52
2021/08/26 11:55:21;;;;;;;1.73;1.00;;;20.30;99.90;;;;;;5051777;28;20435;-48
2021/08/26 11:57:55;;;;;;;0.90;0.60;;;19.90;99.90;;;;;;5052222;28;20453;-49
2021/08/26 12:00:22;;;;;;;1.83;1.10;;;19.60;99.90;;;;;;5054728;28;20534;-49
2021/08/26 12:02:52;;;;;;;3.50;1.10;;;19.50;99.90;;;;;;5056891;28;20993;-46
2021/08/26 12:05:20;;;;;;;1.40;0.83;;;19.40;99.90;;;;;;5047899;28;20462;-47
2021/08/26 12:07:48;;;;;;;1.10;0.70;;;19.20;99.90;;;;;;5047600;28;20440;-50
2021/08/26 12:10:19;;;;;;;2.83;0.90;;;19.00;99.90;;;;;;5039919;28;20459;-47
2021/08/26 12:12:55;;;;;;;1.20;0.87;;;18.80;99.90;;;;;;5055674;28;20431;-48
2021/08/26 12:15:26;;;;;;;1.10;0.70;;;18.60;99.90;;;;;;5047872;28;20440;-44
2021/08/26 12:17:57;;;;;;;3.83;1.27;;;18.60;99.90;;;;;;5037512;28;20429;-49
2021/08/26 12:20:26;;;;;;;3.40;0.90;;;18.60;99.90;;;;;;5050329;28;20803;-47
2021/08/26 12:22:53;;;;;;;2.83;1.17;;;18.60;99.90;;;;;;5057166;28;20458;-44
2021/08/26 12:25:23;;;;;;;1.30;1.10;;;18.80;99.90;;;;;;5057426;28;20459;-45
2021/08/26 12:27:52;;;;;;;1.10;0.80;;;18.90;99.90;;;;;;5056770;28;20439;-44
2021/08/26 12:30:44;;;;;;;1.93;1.03;;;19.00;99.90;;;;;;5059366;28;20447;-47
2021/08/26 12:33:17;;;;;;;1.07;0.70;;;19.30;99.90;;;;;;5021049;28;20537;-48
2021/08/26 12:35:50;;;;;;;1.57;1.03;;;19.50;99.90;;;;;;5036883;28;20510;-45
2021/08/26 12:38:33;;;;;;;1.67;0.87;;;19.70;99.90;;;;;;5036577;28;20429;-49
2021/08/26 12:41:01;;;;;;;2.10;0.90;;;19.80;99.90;;;;;;5050103;28;20956;-50
2021/08/26 12:43:41;;;;;;;1.50;0.83;;;19.90;99.90;;;;;;5056249;28;20486;-53
2021/08/26 12:46:10;;;;;;;0.90;0.60;;;19.90;99.90;;;;;;5056254;28;20768;-52
2021/08/26 12:48:40;;;;;;;1.00;0.80;;;19.90;99.90;;;;;;5056437;28;20439;-47
2021/08/26 12:51:10;;;;;;;2.80;0.97;;;19.80;99.90;;;;;;5056941;28;20454;-45
2021/08/26 12:53:39;;;;;;;2.50;1.17;;;19.70;99.90;;;;;;5055344;28;20497;-49